createdAt,value
2019-03-26T00:01:53.737Z,6.40
2019-03-26T00:04:22.441Z,6.10
2019-03-26T00:06:50.909Z,6.23
2019-03-26T00:09:19.521Z,6.33
2019-03-26T00:11:48.077Z,6.30
2019-03-26T00:14:16.783Z,6.60
2019-03-26T00:16:45.309Z,6.90
2019-03-26T00:19:13.964Z,6.73
2019-03-26T00:21:42.559Z,7.40
2019-03-26T00:24:11.123Z,6.33
2019-03-26T00:26:39.655Z,6.33
2019-03-26T00:29:08.257Z,6.60
2019-03-26T00:31:36.843Z,6.13
2019-03-26T00:34:18.361Z,6.83
2019-03-26T00:36:35.642Z,6.53
2019-03-26T00:39:06.184Z,7.00
2019-03-26T00:41:34.851Z,7.13
2019-03-26T00:44:03.401Z,7.00
2019-03-26T00:46:32.036Z,7.50
2019-03-26T00:49:00.626Z,6.93
2019-03-26T00:51:29.179Z,7.33
2019-03-26T00:53:57.731Z,7.17
2019-03-26T00:56:26.321Z,7.13
2019-03-26T00:58:54.851Z,7.00
2019-03-26T01:01:23.430Z,8.20
2019-03-26T01:03:54.840Z,8.17
2019-03-26T01:06:22.398Z,7.27
2019-03-26T01:08:51.063Z,7.93
2019-03-26T01:11:19.602Z,7.77
2019-03-26T01:13:48.160Z,7.87
2019-03-26T01:16:16.698Z,8.40
2019-03-26T01:18:45.277Z,7.60
2019-03-26T01:21:13.933Z,7.70
2019-03-26T01:23:42.560Z,8.07
2019-03-26T01:26:11.169Z,7.67
2019-03-26T01:28:39.865Z,8.43
2019-03-26T01:31:08.478Z,8.37
2019-03-26T01:33:37.136Z,8.67
2019-03-26T01:36:05.676Z,8.07
2019-03-26T01:38:34.253Z,8.47
2019-03-26T01:41:02.964Z,8.67
2019-03-26T01:43:31.521Z,8.40
2019-03-26T01:46:00.248Z,8.63
2019-03-26T01:48:28.849Z,8.67
2019-03-26T01:50:57.378Z,9.63
2019-03-26T01:53:25.947Z,8.77
2019-03-26T01:55:54.549Z,9.43
2019-03-26T01:58:23.169Z,9.00
2019-03-26T02:00:51.851Z,9.37
2019-03-26T02:03:20.574Z,9.30
2019-03-26T02:05:49.199Z,9.63
2019-03-26T02:08:17.784Z,10.00
2019-03-26T02:10:46.461Z,9.93
2019-03-26T02:13:15.113Z,9.60
2019-03-26T02:15:43.754Z,9.77
2019-03-26T02:18:12.357Z,10.43
2019-03-26T02:20:40.911Z,10.10
2019-03-26T02:23:09.410Z,9.27
2019-03-26T02:25:38.054Z,10.47
2019-03-26T02:28:06.656Z,10.27
2019-03-26T02:30:35.282Z,10.13
2019-03-26T02:33:03.899Z,10.40
2019-03-26T02:35:32.586Z,10.60
2019-03-26T02:38:01.225Z,10.27
2019-03-26T02:40:29.780Z,10.13
2019-03-26T02:42:58.339Z,10.27
2019-03-26T02:45:26.967Z,11.50
2019-03-26T02:47:55.699Z,11.33
2019-03-26T02:50:24.282Z,12.23
2019-03-26T02:52:52.894Z,11.80
2019-03-26T02:55:21.460Z,12.20
2019-03-26T02:57:50.145Z,12.10
2019-03-26T03:00:18.817Z,10.87
2019-03-26T03:02:47.440Z,11.63
2019-03-26T03:05:15.994Z,11.40
2019-03-26T03:07:44.639Z,10.30
2019-03-26T03:10:13.401Z,10.53
2019-03-26T03:12:41.978Z,10.43
2019-03-26T03:15:10.948Z,9.63
2019-03-26T03:17:39.539Z,10.50
2019-03-26T03:20:27.419Z,10.10
2019-03-26T03:22:56.042Z,10.00
2019-03-26T03:25:24.587Z,10.00
2019-03-26T03:27:53.153Z,10.07
2019-03-26T03:30:21.752Z,9.47
2019-03-26T03:32:50.302Z,9.57
2019-03-26T03:35:18.937Z,9.67
2019-03-26T03:37:47.474Z,10.57
2019-03-26T03:40:17.556Z,10.53
2019-03-26T03:42:46.219Z,10.60
2019-03-26T03:45:17.938Z,11.63
2019-03-26T03:47:46.872Z,11.17
2019-03-26T03:50:15.632Z,11.90
2019-03-26T03:52:44.292Z,12.43
2019-03-26T03:55:12.974Z,12.33
2019-03-26T03:57:41.698Z,12.27
2019-03-26T04:00:13.334Z,12.53
2019-03-26T04:02:41.911Z,11.87
2019-03-26T04:05:10.597Z,11.83
2019-03-26T04:07:40.231Z,11.77
2019-03-26T04:10:09.008Z,12.00
2019-03-26T04:12:37.567Z,11.63
2019-03-26T04:15:07.002Z,11.93
2019-03-26T04:17:35.604Z,11.23
2019-03-26T04:20:04.433Z,10.67
2019-03-26T04:22:33.071Z,12.17
2019-03-26T04:25:01.670Z,11.83
2019-03-26T04:27:30.309Z,11.77
2019-03-26T04:29:58.903Z,11.67
2019-03-26T04:32:27.464Z,13.23
2019-03-26T04:34:56.006Z,13.17
2019-03-26T04:37:24.591Z,13.47
2019-03-26T04:39:53.125Z,13.17
2019-03-26T04:42:21.766Z,12.53
2019-03-26T04:44:50.394Z,12.53
2019-03-26T04:47:18.957Z,12.07
2019-03-26T04:49:47.561Z,11.93
2019-03-26T04:52:16.110Z,12.17
2019-03-26T04:54:44.649Z,11.27
2019-03-26T04:57:13.246Z,11.13
2019-03-26T04:59:41.790Z,11.27
2019-03-26T05:02:10.427Z,11.63
2019-03-26T05:04:39.045Z,11.37
2019-03-26T05:07:07.594Z,11.50
2019-03-26T05:09:36.334Z,12.33
2019-03-26T05:12:04.849Z,11.23
2019-03-26T05:14:33.470Z,9.90
2019-03-26T05:17:02.086Z,10.80
2019-03-26T05:19:30.733Z,11.57
2019-03-26T05:21:59.266Z,10.73
2019-03-26T05:24:27.765Z,9.53
2019-03-26T05:26:56.305Z,10.70
2019-03-26T05:29:24.793Z,10.60
2019-03-26T05:31:53.397Z,10.83
2019-03-26T05:34:21.967Z,10.10
2019-03-26T05:36:51.766Z,9.57
2019-03-26T05:39:23.541Z,9.37
2019-03-26T05:41:52.073Z,9.40
2019-03-26T05:44:20.625Z,9.40
2019-03-26T05:46:49.164Z,9.17
2019-03-26T05:49:17.731Z,9.27
2019-03-26T05:51:46.260Z,9.50
2019-03-26T05:54:14.869Z,9.77
2019-03-26T05:56:43.420Z,8.40
2019-03-26T05:59:11.965Z,8.60
2019-03-26T06:01:40.572Z,8.00
2019-03-26T06:04:09.169Z,8.10
2019-03-26T06:06:37.685Z,8.00
2019-03-26T06:09:06.281Z,8.13
2019-03-26T06:11:34.900Z,7.83
2019-03-26T06:14:03.505Z,7.80
2019-03-26T06:16:38.262Z,7.80
2019-03-26T06:19:02.233Z,7.90
2019-03-26T06:21:30.773Z,8.50
2019-03-26T06:23:59.503Z,8.37
2019-03-26T06:26:28.055Z,8.00
2019-03-26T06:28:56.683Z,7.80
2019-03-26T06:31:25.285Z,8.13
2019-03-26T06:33:54.013Z,8.57
2019-03-26T06:36:22.589Z,8.70
2019-03-26T06:38:51.319Z,8.87
2019-03-26T06:41:19.870Z,9.43
2019-03-26T06:43:48.581Z,10.17
2019-03-26T06:46:17.154Z,11.00
2019-03-26T06:48:45.854Z,11.47
2019-03-26T06:51:14.414Z,11.50
2019-03-26T06:53:42.992Z,11.37
2019-03-26T06:56:14.570Z,10.40
2019-03-26T06:58:43.097Z,11.37
2019-03-26T07:01:12.131Z,11.50
2019-03-26T07:03:40.842Z,11.13
2019-03-26T07:06:09.466Z,12.30
2019-03-26T07:08:39.068Z,11.67
2019-03-26T07:11:07.659Z,12.07
2019-03-26T07:13:36.203Z,15.17
2019-03-26T07:16:04.910Z,13.67
2019-03-26T07:18:33.444Z,13.03
2019-03-26T07:21:01.994Z,11.77
2019-03-26T07:23:30.605Z,11.37
2019-03-26T07:25:59.297Z,11.23
2019-03-26T07:28:27.867Z,10.23
2019-03-26T07:30:56.524Z,10.90
2019-03-26T07:33:25.070Z,9.80
2019-03-26T07:35:53.749Z,9.90
2019-03-26T07:38:22.386Z,10.23
2019-03-26T07:40:50.927Z,9.97
2019-03-26T07:43:19.579Z,9.20
2019-03-26T07:45:48.246Z,8.00
2019-03-26T07:48:16.908Z,8.23
2019-03-26T07:50:45.414Z,7.40
2019-03-26T07:53:14.061Z,7.93
2019-03-26T07:55:44.040Z,8.47
2019-03-26T07:58:12.870Z,7.40
2019-03-26T08:00:41.648Z,7.30
2019-03-26T08:03:10.225Z,7.90
2019-03-26T08:05:38.954Z,7.80
2019-03-26T08:08:07.560Z,7.80
2019-03-26T08:10:36.336Z,7.40
2019-03-26T08:13:05.057Z,6.87
2019-03-26T08:15:33.766Z,6.43
2019-03-26T08:18:02.352Z,6.70
2019-03-26T08:20:31.130Z,7.07
2019-03-26T08:22:59.800Z,7.40
2019-03-26T08:25:30.357Z,6.13
2019-03-26T08:27:59.049Z,7.10
2019-03-26T08:30:27.650Z,7.07
2019-03-26T08:32:56.258Z,6.83
2019-03-26T08:35:24.893Z,6.50
2019-03-26T08:37:53.506Z,6.10
2019-03-26T08:40:23.472Z,6.30
2019-03-26T08:42:52.317Z,6.33
2019-03-26T08:45:21.117Z,6.03
2019-03-26T08:47:49.922Z,6.43
2019-03-26T08:50:19.020Z,5.63
2019-03-26T08:52:47.693Z,5.63
2019-03-26T08:55:16.263Z,5.47
2019-03-26T08:57:45.083Z,6.20
2019-03-26T09:00:14.238Z,5.33
2019-03-26T09:02:42.912Z,5.47
2019-03-26T09:05:11.788Z,5.23
2019-03-26T09:07:40.395Z,5.20
2019-03-26T09:10:10.894Z,4.60
2019-03-26T09:12:39.785Z,4.57
2019-03-26T09:15:10.078Z,4.07
2019-03-26T09:17:39.717Z,5.00
2019-03-26T09:20:09.250Z,5.07
2019-03-26T09:22:37.869Z,5.00
2019-03-26T09:25:07.295Z,4.50
2019-03-26T09:27:35.901Z,4.80
2019-03-26T09:30:07.299Z,4.40
2019-03-26T09:32:35.990Z,4.87
2019-03-26T09:35:07.267Z,5.00
2019-03-26T09:37:35.906Z,5.40
2019-03-26T09:40:06.681Z,4.97
2019-03-26T09:42:35.306Z,6.30
2019-03-26T09:45:06.103Z,4.83
2019-03-26T09:47:34.666Z,5.00
2019-03-26T09:50:04.250Z,4.97
2019-03-26T09:52:32.878Z,4.40
2019-03-26T09:55:01.415Z,4.20
2019-03-26T09:57:29.995Z,4.60
2019-03-26T09:59:58.582Z,4.13
2019-03-26T10:02:27.210Z,5.17
2019-03-26T10:04:55.894Z,4.33
2019-03-26T10:07:24.581Z,5.10
2019-03-26T10:09:53.121Z,4.50
2019-03-26T10:12:21.622Z,5.03
2019-03-26T10:14:50.174Z,4.80
2019-03-26T10:17:18.975Z,5.10
2019-03-26T10:19:47.499Z,4.90
2019-03-26T10:22:16.281Z,5.00
2019-03-26T10:24:44.890Z,4.67
2019-03-26T10:27:13.524Z,4.70
2019-03-26T10:29:42.063Z,4.40
2019-03-26T10:32:10.713Z,4.47
2019-03-26T10:34:39.387Z,3.90
2019-03-26T10:37:08.074Z,7.00
2019-03-26T10:39:36.686Z,4.43
2019-03-26T10:42:06.969Z,4.77
2019-03-26T10:44:35.494Z,3.90
2019-03-26T10:47:04.230Z,3.83
2019-03-26T10:49:32.758Z,3.50
2019-03-26T10:52:01.459Z,3.50
2019-03-26T10:54:30.074Z,4.57
2019-03-26T10:56:58.664Z,3.47
2019-03-26T10:59:27.350Z,3.53
2019-03-26T11:01:55.985Z,3.33
2019-03-26T11:04:24.661Z,3.67
2019-03-26T11:06:53.286Z,4.50
2019-03-26T11:09:27.115Z,4.57
2019-03-26T11:11:54.134Z,5.30
2019-03-26T11:14:22.678Z,4.33
2019-03-26T11:16:51.306Z,4.10
2019-03-26T11:19:20.046Z,4.30
2019-03-26T11:21:48.746Z,4.57
2019-03-26T11:24:17.359Z,3.93
2019-03-26T11:26:46.155Z,4.27
2019-03-26T11:29:14.927Z,4.80
2019-03-26T11:31:43.604Z,4.10
2019-03-26T11:34:12.230Z,3.80
2019-03-26T11:36:40.842Z,5.03
2019-03-26T11:39:09.544Z,4.53
2019-03-26T11:41:38.118Z,4.70
2019-03-26T11:44:06.823Z,4.20
2019-03-26T11:46:35.539Z,3.87
2019-03-26T11:49:04.211Z,4.20
2019-03-26T11:51:32.735Z,3.90
2019-03-26T11:54:01.439Z,4.00
2019-03-26T11:56:31.213Z,4.60
2019-03-26T11:58:59.768Z,3.93
2019-03-26T12:01:28.518Z,3.97
2019-03-26T12:03:57.363Z,3.33
2019-03-26T12:06:25.975Z,3.67
2019-03-26T12:08:54.533Z,4.27
2019-03-26T12:11:23.112Z,4.60
2019-03-26T12:13:51.762Z,4.43
2019-03-26T12:16:20.450Z,3.77
2019-03-26T12:18:49.081Z,3.30
2019-03-26T12:21:17.766Z,3.07
2019-03-26T12:23:46.390Z,2.77
2019-03-26T12:26:14.991Z,3.67
2019-03-26T12:28:45.257Z,3.33
2019-03-26T12:31:13.946Z,3.30
2019-03-26T12:33:42.649Z,2.97
2019-03-26T12:36:11.322Z,3.57
2019-03-26T12:38:39.885Z,3.83
2019-03-26T12:41:08.635Z,3.80
2019-03-26T12:43:37.255Z,3.30
2019-03-26T12:46:05.933Z,3.77
2019-03-26T12:48:34.515Z,3.37
2019-03-26T12:51:03.190Z,4.37
2019-03-26T12:53:31.743Z,3.87
2019-03-26T12:56:00.362Z,3.97
2019-03-26T12:58:32.219Z,4.63
2019-03-26T13:00:59.200Z,3.47
2019-03-26T13:03:27.854Z,3.60
2019-03-26T13:05:56.426Z,3.10
2019-03-26T13:08:24.957Z,3.40
2019-03-26T13:10:54.253Z,3.53
2019-03-26T13:13:23.010Z,3.10
2019-03-26T13:15:53.197Z,3.00
2019-03-26T13:18:23.919Z,2.63
2019-03-26T13:20:52.556Z,2.50
2019-03-26T13:23:21.221Z,2.33
2019-03-26T13:25:49.773Z,2.17
2019-03-26T13:28:18.410Z,2.83
2019-03-26T13:30:47.163Z,2.70
2019-03-26T13:33:15.867Z,2.30
2019-03-26T13:35:44.467Z,2.80
2019-03-26T13:38:13.208Z,2.80
2019-03-26T13:40:41.744Z,2.90
2019-03-26T13:43:10.314Z,2.63
2019-03-26T13:45:38.974Z,2.20
2019-03-26T13:48:07.599Z,2.43
2019-03-26T13:50:36.218Z,2.40
2019-03-26T13:53:04.950Z,2.80
2019-03-26T13:55:33.617Z,2.70
2019-03-26T13:58:02.248Z,3.07
2019-03-26T14:00:39.262Z,3.33
2019-03-26T14:03:07.882Z,2.83
2019-03-26T14:05:38.396Z,3.00
2019-03-26T14:08:07.075Z,2.60
2019-03-26T14:10:41.113Z,2.83
2019-03-26T14:13:06.172Z,2.93
2019-03-26T14:15:34.857Z,2.80
2019-03-26T14:18:03.460Z,3.00
2019-03-26T14:20:32.198Z,3.30
2019-03-26T14:23:00.805Z,2.87
2019-03-26T14:25:29.518Z,2.90
2019-03-26T14:27:58.149Z,3.27
2019-03-26T14:30:38.074Z,3.37
2019-03-26T14:33:07.292Z,3.20
2019-03-26T14:35:36.061Z,3.07
2019-03-26T14:38:04.666Z,3.07
2019-03-26T14:40:33.305Z,3.47
2019-03-26T14:43:02.050Z,2.80
2019-03-26T14:45:30.667Z,3.23
2019-03-26T14:47:59.358Z,2.90
2019-03-26T14:50:28.035Z,3.00
2019-03-26T14:52:56.599Z,3.10
2019-03-26T14:55:25.290Z,3.40
2019-03-26T14:57:53.987Z,3.20
2019-03-26T15:00:22.592Z,3.13
2019-03-26T15:02:51.239Z,3.30
2019-03-26T15:05:19.762Z,3.03
2019-03-26T15:07:48.467Z,3.37
2019-03-26T15:10:17.337Z,2.90
2019-03-26T15:12:45.999Z,3.17
2019-03-26T15:15:15.127Z,3.17
2019-03-26T15:17:43.858Z,3.53
2019-03-26T15:20:12.819Z,2.87
2019-03-26T15:22:41.440Z,2.93
2019-03-26T15:25:10.304Z,2.90
2019-03-26T15:27:39.967Z,3.47
2019-03-26T15:30:09.157Z,3.20
2019-03-26T15:32:37.693Z,2.90
2019-03-26T15:35:07.494Z,3.30
2019-03-26T15:37:36.091Z,2.90
2019-03-26T15:40:07.186Z,3.00
2019-03-26T15:42:35.713Z,3.10
2019-03-26T15:45:09.024Z,3.50
2019-03-26T15:47:37.556Z,3.10
2019-03-26T15:50:08.054Z,3.20
2019-03-26T15:52:36.658Z,3.43
2019-03-26T15:55:06.231Z,3.20
2019-03-26T15:57:34.902Z,3.23
2019-03-26T16:00:05.835Z,3.17
2019-03-26T16:02:34.391Z,3.23
2019-03-26T16:05:03.016Z,4.03
2019-03-26T16:07:33.164Z,3.33
2019-03-26T16:10:01.964Z,3.30
2019-03-26T16:12:40.503Z,3.17
2019-03-26T16:15:00.890Z,3.03
2019-03-26T16:17:29.459Z,3.73
2019-03-26T16:19:58.046Z,3.77
2019-03-26T16:22:26.677Z,3.90
2019-03-26T16:24:55.705Z,3.60
2019-03-26T16:27:24.265Z,3.57
2019-03-26T16:29:52.977Z,3.40
2019-03-26T16:32:21.624Z,3.60
2019-03-26T16:34:50.393Z,4.27
2019-03-26T16:37:19.017Z,3.57
2019-03-26T16:39:47.730Z,3.67
2019-03-26T16:42:16.340Z,3.73
2019-03-26T16:44:44.915Z,3.80
2019-03-26T16:47:13.602Z,4.00
2019-03-26T16:49:42.092Z,3.87
2019-03-26T16:52:10.702Z,7.63
2019-03-26T16:54:39.379Z,4.50
2019-03-26T16:57:07.981Z,4.50
2019-03-26T16:59:36.603Z,4.53
2019-03-26T17:02:05.341Z,3.97
2019-03-26T17:04:33.895Z,4.40
2019-03-26T17:07:02.431Z,4.77
2019-03-26T17:09:31.130Z,4.30
2019-03-26T17:12:03.363Z,4.77
2019-03-26T17:14:30.019Z,4.30
2019-03-26T17:16:59.012Z,4.90
2019-03-26T17:19:27.547Z,4.90
2019-03-26T17:21:56.160Z,4.70
2019-03-26T17:24:24.731Z,4.77
2019-03-26T17:26:53.347Z,5.10
2019-03-26T17:29:21.886Z,4.60
2019-03-26T17:31:50.544Z,4.87
2019-03-26T17:34:19.133Z,6.03
2019-03-26T17:36:47.690Z,8.70
2019-03-26T17:39:16.479Z,5.20
2019-03-26T17:41:45.149Z,5.93
2019-03-26T17:44:17.033Z,5.20
2019-03-26T17:46:45.865Z,4.70
2019-03-26T17:49:14.654Z,5.03
2019-03-26T17:51:43.302Z,5.10
2019-03-26T17:54:11.851Z,7.33
2019-03-26T17:56:40.387Z,5.93
2019-03-26T17:59:09.097Z,5.90
2019-03-26T18:01:40.851Z,5.73
2019-03-26T18:04:11.054Z,5.33
2019-03-26T18:06:39.677Z,5.20
2019-03-26T18:09:08.511Z,5.73
2019-03-26T19:02:49.096Z,5.70
2019-03-26T19:05:17.734Z,6.13
2019-03-26T19:07:46.327Z,5.90
2019-03-26T19:10:30.008Z,5.53
2019-03-26T19:13:00.397Z,6.23
2019-03-26T19:15:29.116Z,6.33
2019-03-26T19:17:57.950Z,5.53
2019-03-26T19:20:26.540Z,5.90
2019-03-26T19:22:55.217Z,6.10
2019-03-26T19:25:23.982Z,6.00
2019-03-26T19:27:52.515Z,5.70
2019-03-26T19:30:21.212Z,5.27
2019-03-26T19:32:49.887Z,5.60
2019-03-26T19:35:18.650Z,5.13
2019-03-26T19:37:47.576Z,5.77
2019-03-26T19:40:16.266Z,5.40
2019-03-26T19:42:45.555Z,5.40
2019-03-26T19:45:14.444Z,5.93
2019-03-26T19:47:42.978Z,6.03
2019-03-26T19:50:12.669Z,6.10
2019-03-26T19:52:41.232Z,5.90
2019-03-26T19:55:10.094Z,5.63
2019-03-26T19:57:38.841Z,6.33
2019-03-26T20:00:10.182Z,6.17
2019-03-26T20:02:38.865Z,5.70
2019-03-26T20:05:07.483Z,6.50
2019-03-26T20:07:36.690Z,6.17
2019-03-26T20:10:08.616Z,5.43
2019-03-26T20:12:37.414Z,5.83
2019-03-26T20:15:07.783Z,5.60
2019-03-26T20:17:36.492Z,6.33
2019-03-26T20:20:07.172Z,5.80
2019-03-26T20:22:35.789Z,6.80
2019-03-26T20:25:06.388Z,7.13
2019-03-26T20:27:35.171Z,8.40
2019-03-26T20:30:05.574Z,8.33
2019-03-26T20:32:34.228Z,6.20
2019-03-26T20:35:03.423Z,6.00
2019-03-26T20:37:32.027Z,6.07
2019-03-26T20:40:00.575Z,5.97
2019-03-26T20:42:29.198Z,6.13
2019-03-26T20:44:57.664Z,6.30
2019-03-26T20:47:26.330Z,6.17
2019-03-26T20:49:54.963Z,6.73
2019-03-26T20:52:23.675Z,6.33
2019-03-26T20:54:52.287Z,7.33
2019-03-26T20:57:20.975Z,6.60
2019-03-26T20:59:49.581Z,6.33
2019-03-26T21:02:18.231Z,6.40
2019-03-26T21:04:46.833Z,7.17
2019-03-26T21:07:15.509Z,6.90
2019-03-26T21:09:44.037Z,7.13
2019-03-26T21:12:12.649Z,6.43
2019-03-26T21:14:43.648Z,6.93
2019-03-26T21:17:12.220Z,7.47
2019-03-26T21:19:40.837Z,8.60
2019-03-26T21:22:09.392Z,7.80
2019-03-26T21:24:38.014Z,9.67
2019-03-26T21:27:06.709Z,10.20
2019-03-26T21:29:35.249Z,7.33
2019-03-26T21:32:04.082Z,7.30
2019-03-26T21:34:32.734Z,7.30
2019-03-26T21:37:01.254Z,7.03
2019-03-26T21:39:29.853Z,7.17
2019-03-26T21:41:58.448Z,7.20
2019-03-26T21:44:26.993Z,6.30
2019-03-26T21:46:55.474Z,6.80
2019-03-26T21:49:24.118Z,6.50
2019-03-26T21:51:52.723Z,6.63
2019-03-26T21:54:21.297Z,6.67
2019-03-26T21:56:49.901Z,7.57
2019-03-26T21:59:18.571Z,7.07
2019-03-26T22:01:47.113Z,6.77
2019-03-26T22:04:15.738Z,6.57
2019-03-26T22:06:44.342Z,6.77
2019-03-26T22:09:12.968Z,6.40
2019-03-26T22:11:49.632Z,7.03
2019-03-26T22:14:17.747Z,6.83
2019-03-26T22:16:42.117Z,6.70
2019-03-26T22:19:10.681Z,7.27
2019-03-26T22:21:39.207Z,7.40
2019-03-26T22:24:07.786Z,7.03
2019-03-26T22:26:36.401Z,6.93
2019-03-26T22:29:04.986Z,7.73
2019-03-26T22:31:33.548Z,7.43
2019-03-26T22:34:02.110Z,7.03
2019-03-26T22:36:30.689Z,7.57
2019-03-26T22:38:59.310Z,6.90
2019-03-26T22:41:27.913Z,7.40
2019-03-26T22:43:56.396Z,6.93
2019-03-26T22:46:25.067Z,8.10
2019-03-26T22:48:53.761Z,6.67
2019-03-26T22:51:22.290Z,6.97
2019-03-26T22:53:50.934Z,7.47
2019-03-26T22:56:19.525Z,7.23
2019-03-26T22:58:48.053Z,8.33
2019-03-26T23:01:16.868Z,8.20
2019-03-26T23:03:45.573Z,8.37
2019-03-26T23:06:14.474Z,8.40
2019-03-26T23:08:43.117Z,8.33
2019-03-26T23:11:11.878Z,7.67
2019-03-26T23:13:40.421Z,8.07
2019-03-26T23:16:09.132Z,8.70
2019-03-26T23:18:37.690Z,8.80
2019-03-26T23:21:06.378Z,8.37
2019-03-26T23:23:34.979Z,8.93
2019-03-26T23:26:03.534Z,8.50
2019-03-26T23:28:32.281Z,8.80
2019-03-26T23:31:00.909Z,8.60
2019-03-26T23:33:29.531Z,8.37
2019-03-26T23:35:58.158Z,8.97
2019-03-26T23:38:26.683Z,8.27
2019-03-26T23:40:55.235Z,8.97
2019-03-26T23:43:23.785Z,8.73
2019-03-26T23:45:52.344Z,9.50
2019-03-26T23:48:20.882Z,9.10
2019-03-26T23:50:49.536Z,10.40
2019-03-26T23:53:18.150Z,10.47
2019-03-26T23:55:46.832Z,10.47
2019-03-26T23:58:15.388Z,11.30
